sensor_id;sensor_type;location;lat;lon;timestamp;P1;durP1;ratioP1;P2;durP2;ratioP2
37063;SDS011;23211;53.912;9.138;2022-10-18T00:02:18;22.60;;;9.63;;
37063;SDS011;23211;53.912;9.138;2022-10-18T00:05:04;18.77;;;9.50;;
37063;SDS011;23211;53.912;9.138;2022-10-18T00:07:50;17.13;;;9.30;;
37063;SDS011;23211;53.912;9.138;2022-10-18T00:10:36;21.38;;;9.57;;
37063;SDS011;23211;53.912;9.138;2022-10-18T00:13:22;16.17;;;8.68;;
37063;SDS011;23211;53.912;9.138;2022-10-18T00:16:10;14.82;;;7.80;;
37063;SDS011;23211;53.912;9.138;2022-10-18T00:18:57;21.75;;;8.40;;
37063;SDS011;23211;53.912;9.138;2022-10-18T00:21:43;15.15;;;8.63;;
37063;SDS011;23211;53.912;9.138;2022-10-18T00:24:29;17.85;;;8.60;;
37063;SDS011;23211;53.912;9.138;2022-10-18T00:27:15;18.75;;;8.93;;
37063;SDS011;23211;53.912;9.138;2022-10-18T00:30:01;16.65;;;8.77;;
37063;SDS011;23211;53.912;9.138;2022-10-18T00:32:47;15.98;;;9.95;;
37063;SDS011;23211;53.912;9.138;2022-10-18T00:35:33;19.23;;;10.32;;
37063;SDS011;23211;53.912;9.138;2022-10-18T00:38:19;19.00;;;10.30;;
37063;SDS011;23211;53.912;9.138;2022-10-18T00:41:06;22.05;;;11.88;;
37063;SDS011;23211;53.912;9.138;2022-10-18T00:46:43;18.15;;;12.05;;
37063;SDS011;23211;53.912;9.138;2022-10-18T00:49:33;25.58;;;13.25;;
37063;SDS011;23211;53.912;9.138;2022-10-18T00:52:23;20.17;;;11.52;;
37063;SDS011;23211;53.912;9.138;2022-10-18T00:55:12;20.58;;;12.77;;
37063;SDS011;23211;53.912;9.138;2022-10-18T00:57:58;16.20;;;11.43;;
37063;SDS011;23211;53.912;9.138;2022-10-18T01:00:45;23.30;;;12.05;;
37063;SDS011;23211;53.912;9.138;2022-10-18T01:03:31;22.50;;;11.77;;
37063;SDS011;23211;53.912;9.138;2022-10-18T01:06:17;21.65;;;12.38;;
37063;SDS011;23211;53.912;9.138;2022-10-18T01:09:12;18.30;;;12.93;;
37063;SDS011;23211;53.912;9.138;2022-10-18T01:15:09;19.58;;;11.80;;
37063;SDS011;23211;53.912;9.138;2022-10-18T01:18:15;16.92;;;11.10;;
37063;SDS011;23211;53.912;9.138;2022-10-18T01:21:14;23.60;;;12.13;;
37063;SDS011;23211;53.912;9.138;2022-10-18T01:30:51;22.33;;;12.75;;
37063;SDS011;23211;53.912;9.138;2022-10-18T01:34:00;25.15;;;14.18;;
37063;SDS011;23211;53.912;9.138;2022-10-18T01:36:50;18.85;;;12.75;;
37063;SDS011;23211;53.912;9.138;2022-10-18T01:39:40;23.95;;;14.10;;
37063;SDS011;23211;53.912;9.138;2022-10-18T01:42:29;25.45;;;14.73;;
37063;SDS011;23211;53.912;9.138;2022-10-18T01:45:16;24.13;;;15.32;;
37063;SDS011;23211;53.912;9.138;2022-10-18T01:48:03;25.75;;;15.85;;
37063;SDS011;23211;53.912;9.138;2022-10-18T01:50:51;27.17;;;17.00;;
37063;SDS011;23211;53.912;9.138;2022-10-18T01:53:38;25.85;;;16.05;;
37063;SDS011;23211;53.912;9.138;2022-10-18T01:56:32;26.63;;;17.00;;
37063;SDS011;23211;53.912;9.138;2022-10-18T01:59:43;28.30;;;18.40;;
37063;SDS011;23211;53.912;9.138;2022-10-18T02:03:03;24.52;;;16.45;;
37063;SDS011;23211;53.912;9.138;2022-10-18T02:09:12;26.38;;;16.27;;
37063;SDS011;23211;53.912;9.138;2022-10-18T02:12:03;31.00;;;16.63;;
37063;SDS011;23211;53.912;9.138;2022-10-18T02:14:53;25.83;;;15.23;;
37063;SDS011;23211;53.912;9.138;2022-10-18T02:17:40;26.08;;;15.68;;
37063;SDS011;23211;53.912;9.138;2022-10-18T02:20:29;27.45;;;15.07;;
37063;SDS011;23211;53.912;9.138;2022-10-18T02:23:18;25.27;;;14.18;;
37063;SDS011;23211;53.912;9.138;2022-10-18T02:26:05;24.92;;;14.75;;
37063;SDS011;23211;53.912;9.138;2022-10-18T02:28:51;27.42;;;15.27;;
37063;SDS011;23211;53.912;9.138;2022-10-18T02:31:39;23.63;;;14.57;;
37063;SDS011;23211;53.912;9.138;2022-10-18T02:34:30;27.65;;;14.90;;
37063;SDS011;23211;53.912;9.138;2022-10-18T02:37:31;26.65;;;15.40;;
37063;SDS011;23211;53.912;9.138;2022-10-18T02:40:21;30.30;;;15.52;;
37063;SDS011;23211;53.912;9.138;2022-10-18T02:43:07;29.38;;;15.07;;
37063;SDS011;23211;53.912;9.138;2022-10-18T02:45:53;25.80;;;15.10;;
37063;SDS011;23211;53.912;9.138;2022-10-18T02:48:39;29.67;;;16.08;;
37063;SDS011;23211;53.912;9.138;2022-10-18T02:51:25;25.27;;;15.35;;
37063;SDS011;23211;53.912;9.138;2022-10-18T02:54:10;30.73;;;16.25;;
37063;SDS011;23211;53.912;9.138;2022-10-18T02:56:56;23.95;;;15.35;;
37063;SDS011;23211;53.912;9.138;2022-10-18T02:59:42;26.83;;;16.17;;
37063;SDS011;23211;53.912;9.138;2022-10-18T03:02:28;23.75;;;14.90;;
37063;SDS011;23211;53.912;9.138;2022-10-18T03:05:13;24.05;;;16.58;;
37063;SDS011;23211;53.912;9.138;2022-10-18T03:07:59;28.92;;;16.33;;
37063;SDS011;23211;53.912;9.138;2022-10-18T03:10:45;24.17;;;16.60;;
37063;SDS011;23211;53.912;9.138;2022-10-18T03:13:31;24.00;;;16.15;;
37063;SDS011;23211;53.912;9.138;2022-10-18T03:16:18;34.05;;;17.58;;
37063;SDS011;23211;53.912;9.138;2022-10-18T03:19:04;26.65;;;16.33;;
37063;SDS011;23211;53.912;9.138;2022-10-18T03:21:50;25.48;;;17.45;;
37063;SDS011;23211;53.912;9.138;2022-10-18T03:24:35;30.15;;;17.38;;
37063;SDS011;23211;53.912;9.138;2022-10-18T03:27:21;27.02;;;17.33;;
37063;SDS011;23211;53.912;9.138;2022-10-18T03:30:07;31.80;;;17.73;;
37063;SDS011;23211;53.912;9.138;2022-10-18T03:32:56;26.17;;;17.60;;
37063;SDS011;23211;53.912;9.138;2022-10-18T03:35:41;30.95;;;19.30;;
37063;SDS011;23211;53.912;9.138;2022-10-18T03:38:27;31.42;;;19.92;;
37063;SDS011;23211;53.912;9.138;2022-10-18T03:41:13;33.90;;;19.33;;
37063;SDS011;23211;53.912;9.138;2022-10-18T03:43:59;27.73;;;18.63;;
37063;SDS011;23211;53.912;9.138;2022-10-18T03:46:44;26.92;;;16.90;;
37063;SDS011;23211;53.912;9.138;2022-10-18T03:49:30;24.50;;;16.73;;
37063;SDS011;23211;53.912;9.138;2022-10-18T03:52:16;35.25;;;18.73;;
37063;SDS011;23211;53.912;9.138;2022-10-18T03:55:02;30.33;;;16.65;;
37063;SDS011;23211;53.912;9.138;2022-10-18T03:57:48;30.85;;;18.08;;
37063;SDS011;23211;53.912;9.138;2022-10-18T04:00:34;30.98;;;17.10;;
37063;SDS011;23211;53.912;9.138;2022-10-18T04:03:20;30.98;;;16.67;;
37063;SDS011;23211;53.912;9.138;2022-10-18T04:06:07;34.22;;;18.25;;
37063;SDS011;23211;53.912;9.138;2022-10-18T04:08:54;33.67;;;16.95;;
37063;SDS011;23211;53.912;9.138;2022-10-18T04:11:40;26.83;;;16.20;;
37063;SDS011;23211;53.912;9.138;2022-10-18T04:14:26;30.95;;;14.82;;
37063;SDS011;23211;53.912;9.138;2022-10-18T04:17:12;32.83;;;16.58;;
37063;SDS011;23211;53.912;9.138;2022-10-18T04:19:57;32.10;;;14.95;;
37063;SDS011;23211;53.912;9.138;2022-10-18T04:22:43;33.70;;;16.00;;
37063;SDS011;23211;53.912;9.138;2022-10-18T04:25:29;34.17;;;15.95;;
37063;SDS011;23211;53.912;9.138;2022-10-18T04:28:15;28.70;;;14.38;;
37063;SDS011;23211;53.912;9.138;2022-10-18T04:31:00;24.05;;;14.43;;
37063;SDS011;23211;53.912;9.138;2022-10-18T04:33:46;30.08;;;16.65;;
37063;SDS011;23211;53.912;9.138;2022-10-18T04:36:32;29.15;;;15.30;;
37063;SDS011;23211;53.912;9.138;2022-10-18T04:39:18;34.80;;;16.55;;
37063;SDS011;23211;53.912;9.138;2022-10-18T04:42:03;30.15;;;16.40;;
37063;SDS011;23211;53.912;9.138;2022-10-18T04:44:49;35.45;;;14.77;;
37063;SDS011;23211;53.912;9.138;2022-10-18T04:47:35;26.38;;;15.30;;
37063;SDS011;23211;53.912;9.138;2022-10-18T04:50:21;42.80;;;16.48;;
37063;SDS011;23211;53.912;9.138;2022-10-18T04:53:08;30.20;;;16.17;;
37063;SDS011;23211;53.912;9.138;2022-10-18T04:55:54;26.88;;;15.40;;
37063;SDS011;23211;53.912;9.138;2022-10-18T04:58:40;34.58;;;16.58;;
37063;SDS011;23211;53.912;9.138;2022-10-18T05:01:25;35.53;;;16.80;;
37063;SDS011;23211;53.912;9.138;2022-10-18T05:04:11;31.73;;;15.30;;
37063;SDS011;23211;53.912;9.138;2022-10-18T05:06:57;36.05;;;17.38;;
37063;SDS011;23211;53.912;9.138;2022-10-18T05:09:43;30.88;;;15.95;;
37063;SDS011;23211;53.912;9.138;2022-10-18T05:12:28;37.13;;;16.75;;
37063;SDS011;23211;53.912;9.138;2022-10-18T05:15:14;34.15;;;16.85;;
37063;SDS011;23211;53.912;9.138;2022-10-18T05:18:00;30.33;;;17.08;;
37063;SDS011;23211;53.912;9.138;2022-10-18T05:20:46;33.05;;;15.60;;
37063;SDS011;23211;53.912;9.138;2022-10-18T05:23:32;29.23;;;14.52;;
37063;SDS011;23211;53.912;9.138;2022-10-18T05:26:17;32.20;;;16.17;;
37063;SDS011;23211;53.912;9.138;2022-10-18T05:29:03;33.83;;;16.67;;
37063;SDS011;23211;53.912;9.138;2022-10-18T05:31:49;31.70;;;16.60;;
37063;SDS011;23211;53.912;9.138;2022-10-18T05:34:35;27.25;;;13.80;;
37063;SDS011;23211;53.912;9.138;2022-10-18T05:37:20;31.65;;;15.18;;
37063;SDS011;23211;53.912;9.138;2022-10-18T05:40:06;29.27;;;14.32;;
37063;SDS011;23211;53.912;9.138;2022-10-18T05:42:53;30.88;;;15.52;;
37063;SDS011;23211;53.912;9.138;2022-10-18T05:45:38;33.88;;;14.90;;
37063;SDS011;23211;53.912;9.138;2022-10-18T05:48:24;33.65;;;14.63;;
37063;SDS011;23211;53.912;9.138;2022-10-18T05:51:11;23.88;;;12.77;;
37063;SDS011;23211;53.912;9.138;2022-10-18T05:53:56;28.90;;;13.95;;
37063;SDS011;23211;53.912;9.138;2022-10-18T05:56:43;21.90;;;13.02;;
37063;SDS011;23211;53.912;9.138;2022-10-18T05:59:29;26.10;;;13.75;;
37063;SDS011;23211;53.912;9.138;2022-10-18T06:02:14;26.33;;;13.38;;
37063;SDS011;23211;53.912;9.138;2022-10-18T06:05:00;30.15;;;15.13;;
37063;SDS011;23211;53.912;9.138;2022-10-18T06:07:46;29.05;;;14.55;;
37063;SDS011;23211;53.912;9.138;2022-10-18T06:10:32;30.13;;;15.43;;
37063;SDS011;23211;53.912;9.138;2022-10-18T06:13:18;30.15;;;15.70;;
37063;SDS011;23211;53.912;9.138;2022-10-18T06:16:03;27.90;;;15.73;;
37063;SDS011;23211;53.912;9.138;2022-10-18T06:18:54;33.60;;;15.57;;
37063;SDS011;23211;53.912;9.138;2022-10-18T06:24:27;29.98;;;15.00;;
37063;SDS011;23211;53.912;9.138;2022-10-18T06:27:13;30.83;;;16.63;;
37063;SDS011;23211;53.912;9.138;2022-10-18T06:29:59;34.10;;;16.38;;
37063;SDS011;23211;53.912;9.138;2022-10-18T06:32:45;36.78;;;17.20;;
37063;SDS011;23211;53.912;9.138;2022-10-18T06:35:30;29.33;;;15.85;;
37063;SDS011;23211;53.912;9.138;2022-10-18T06:38:16;36.72;;;17.55;;
37063;SDS011;23211;53.912;9.138;2022-10-18T06:41:02;31.48;;;16.00;;
37063;SDS011;23211;53.912;9.138;2022-10-18T06:43:49;31.60;;;14.55;;
37063;SDS011;23211;53.912;9.138;2022-10-18T06:46:37;34.15;;;15.60;;
37063;SDS011;23211;53.912;9.138;2022-10-18T06:49:26;35.63;;;16.30;;
37063;SDS011;23211;53.912;9.138;2022-10-18T06:52:12;35.05;;;16.67;;
37063;SDS011;23211;53.912;9.138;2022-10-18T06:55:00;38.97;;;16.85;;
37063;SDS011;23211;53.912;9.138;2022-10-18T06:57:46;33.00;;;17.65;;
37063;SDS011;23211;53.912;9.138;2022-10-18T07:00:32;31.67;;;16.60;;
37063;SDS011;23211;53.912;9.138;2022-10-18T07:03:18;37.13;;;17.05;;
37063;SDS011;23211;53.912;9.138;2022-10-18T07:06:04;37.47;;;16.52;;
37063;SDS011;23211;53.912;9.138;2022-10-18T07:08:52;36.97;;;17.88;;
37063;SDS011;23211;53.912;9.138;2022-10-18T07:11:38;37.38;;;16.42;;
37063;SDS011;23211;53.912;9.138;2022-10-18T07:14:24;31.88;;;16.23;;
37063;SDS011;23211;53.912;9.138;2022-10-18T07:17:10;39.00;;;16.58;;
37063;SDS011;23211;53.912;9.138;2022-10-18T07:19:56;32.03;;;15.82;;
37063;SDS011;23211;53.912;9.138;2022-10-18T07:22:41;32.58;;;15.35;;
37063;SDS011;23211;53.912;9.138;2022-10-18T07:25:27;40.13;;;15.32;;
37063;SDS011;23211;53.912;9.138;2022-10-18T07:28:13;34.03;;;14.80;;
37063;SDS011;23211;53.912;9.138;2022-10-18T07:31:02;35.95;;;14.85;;
37063;SDS011;23211;53.912;9.138;2022-10-18T07:33:49;30.52;;;14.57;;
37063;SDS011;23211;53.912;9.138;2022-10-18T07:36:35;22.08;;;12.32;;
37063;SDS011;23211;53.912;9.138;2022-10-18T07:39:21;27.00;;;12.98;;
37063;SDS011;23211;53.912;9.138;2022-10-18T07:42:07;31.25;;;13.82;;
37063;SDS011;23211;53.912;9.138;2022-10-18T07:44:53;28.65;;;13.77;;
37063;SDS011;23211;53.912;9.138;2022-10-18T07:47:39;31.60;;;15.05;;
37063;SDS011;23211;53.912;9.138;2022-10-18T07:50:24;30.00;;;12.88;;
37063;SDS011;23211;53.912;9.138;2022-10-18T07:53:10;26.38;;;12.73;;
37063;SDS011;23211;53.912;9.138;2022-10-18T07:55:59;21.73;;;12.88;;
37063;SDS011;23211;53.912;9.138;2022-10-18T07:58:55;24.95;;;12.40;;
37063;SDS011;23211;53.912;9.138;2022-10-18T08:01:41;28.90;;;12.70;;
37063;SDS011;23211;53.912;9.138;2022-10-18T08:04:27;26.52;;;12.52;;
37063;SDS011;23211;53.912;9.138;2022-10-18T08:07:13;27.45;;;13.73;;
37063;SDS011;23211;53.912;9.138;2022-10-18T08:09:58;34.28;;;13.10;;
37063;SDS011;23211;53.912;9.138;2022-10-18T08:12:44;26.52;;;13.18;;
37063;SDS011;23211;53.912;9.138;2022-10-18T08:15:30;21.58;;;11.70;;
37063;SDS011;23211;53.912;9.138;2022-10-18T08:18:16;25.45;;;13.30;;
37063;SDS011;23211;53.912;9.138;2022-10-18T08:21:02;31.92;;;12.13;;
37063;SDS011;23211;53.912;9.138;2022-10-18T08:23:50;25.60;;;13.85;;
37063;SDS011;23211;53.912;9.138;2022-10-18T08:26:36;28.23;;;13.30;;
37063;SDS011;23211;53.912;9.138;2022-10-18T08:29:22;22.90;;;12.65;;
37063;SDS011;23211;53.912;9.138;2022-10-18T08:32:07;27.00;;;13.25;;
37063;SDS011;23211;53.912;9.138;2022-10-18T08:34:53;25.60;;;11.50;;
37063;SDS011;23211;53.912;9.138;2022-10-18T08:37:39;24.30;;;12.32;;
37063;SDS011;23211;53.912;9.138;2022-10-18T08:40:25;21.33;;;11.25;;
37063;SDS011;23211;53.912;9.138;2022-10-18T08:43:21;18.10;;;10.45;;
37063;SDS011;23211;53.912;9.138;2022-10-18T08:46:15;22.50;;;11.10;;
37063;SDS011;23211;53.912;9.138;2022-10-18T08:49:01;23.15;;;11.30;;
37063;SDS011;23211;53.912;9.138;2022-10-18T08:51:48;23.63;;;10.20;;
37063;SDS011;23211;53.912;9.138;2022-10-18T08:54:53;18.00;;;9.95;;
37063;SDS011;23211;53.912;9.138;2022-10-18T08:57:45;23.17;;;9.93;;
37063;SDS011;23211;53.912;9.138;2022-10-18T09:00:33;17.25;;;9.85;;
37063;SDS011;23211;53.912;9.138;2022-10-18T09:12:54;17.17;;;8.85;;
37063;SDS011;23211;53.912;9.138;2022-10-18T09:15:48;18.67;;;8.60;;
37063;SDS011;23211;53.912;9.138;2022-10-18T09:21:51;18.98;;;8.98;;
37063;SDS011;23211;53.912;9.138;2022-10-18T09:24:39;21.77;;;9.65;;
37063;SDS011;23211;53.912;9.138;2022-10-18T09:27:52;17.45;;;8.82;;
37063;SDS011;23211;53.912;9.138;2022-10-18T09:36:36;16.75;;;7.70;;
37063;SDS011;23211;53.912;9.138;2022-10-18T09:39:30;15.27;;;7.65;;
37063;SDS011;23211;53.912;9.138;2022-10-18T09:42:20;14.15;;;7.40;;
37063;SDS011;23211;53.912;9.138;2022-10-18T09:48:54;17.65;;;6.32;;
37063;SDS011;23211;53.912;9.138;2022-10-18T09:54:34;13.32;;;5.97;;
37063;SDS011;23211;53.912;9.138;2022-10-18T10:03:10;20.50;;;6.85;;
37063;SDS011;23211;53.912;9.138;2022-10-18T10:06:22;19.52;;;6.85;;
37063;SDS011;23211;53.912;9.138;2022-10-18T10:09:15;19.00;;;5.95;;
37063;SDS011;23211;53.912;9.138;2022-10-18T10:12:02;18.05;;;6.47;;
37063;SDS011;23211;53.912;9.138;2022-10-18T10:14:48;13.00;;;5.50;;
37063;SDS011;23211;53.912;9.138;2022-10-18T10:17:34;17.95;;;6.03;;
37063;SDS011;23211;53.912;9.138;2022-10-18T10:20:22;12.95;;;4.70;;
37063;SDS011;23211;53.912;9.138;2022-10-18T10:23:35;17.05;;;5.63;;
37063;SDS011;23211;53.912;9.138;2022-10-18T10:26:27;15.00;;;4.88;;
37063;SDS011;23211;53.912;9.138;2022-10-18T10:29:36;11.27;;;4.43;;
37063;SDS011;23211;53.912;9.138;2022-10-18T10:32:42;23.02;;;5.63;;
37063;SDS011;23211;53.912;9.138;2022-10-18T10:35:33;13.60;;;4.13;;
37063;SDS011;23211;53.912;9.138;2022-10-18T10:38:22;16.60;;;4.50;;
37063;SDS011;23211;53.912;9.138;2022-10-18T10:41:19;15.45;;;4.68;;
37063;SDS011;23211;53.912;9.138;2022-10-18T10:44:19;13.38;;;4.88;;
37063;SDS011;23211;53.912;9.138;2022-10-18T10:47:07;12.73;;;3.95;;
37063;SDS011;23211;53.912;9.138;2022-10-18T10:49:52;13.60;;;5.03;;
37063;SDS011;23211;53.912;9.138;2022-10-18T10:52:40;22.20;;;4.72;;
37063;SDS011;23211;53.912;9.138;2022-10-18T10:55:32;16.15;;;3.42;;
37063;SDS011;23211;53.912;9.138;2022-10-18T10:58:19;13.07;;;3.47;;
37063;SDS011;23211;53.912;9.138;2022-10-18T11:01:23;14.68;;;3.90;;
37063;SDS011;23211;53.912;9.138;2022-10-18T11:04:28;12.90;;;3.83;;
37063;SDS011;23211;53.912;9.138;2022-10-18T11:10:27;15.75;;;3.67;;
37063;SDS011;23211;53.912;9.138;2022-10-18T11:13:23;15.68;;;3.92;;
37063;SDS011;23211;53.912;9.138;2022-10-18T11:16:22;16.25;;;4.38;;
37063;SDS011;23211;53.912;9.138;2022-10-18T11:19:24;14.60;;;3.67;;
37063;SDS011;23211;53.912;9.138;2022-10-18T11:22:17;13.57;;;3.92;;
37063;SDS011;23211;53.912;9.138;2022-10-18T11:25:09;15.77;;;3.70;;
37063;SDS011;23211;53.912;9.138;2022-10-18T11:28:05;18.25;;;3.83;;
37063;SDS011;23211;53.912;9.138;2022-10-18T11:34:14;28.15;;;3.47;;
37063;SDS011;23211;53.912;9.138;2022-10-18T11:43:54;16.30;;;3.15;;
37063;SDS011;23211;53.912;9.138;2022-10-18T11:46:46;17.50;;;3.47;;
37063;SDS011;23211;53.912;9.138;2022-10-18T12:05:12;14.55;;;2.97;;
37063;SDS011;23211;53.912;9.138;2022-10-18T12:08:06;12.18;;;2.63;;
37063;SDS011;23211;53.912;9.138;2022-10-18T12:10:57;14.88;;;2.70;;
37063;SDS011;23211;53.912;9.138;2022-10-18T12:13:49;14.80;;;2.70;;
37063;SDS011;23211;53.912;9.138;2022-10-18T12:16:38;18.37;;;2.93;;
37063;SDS011;23211;53.912;9.138;2022-10-18T12:19:26;12.40;;;2.55;;
37063;SDS011;23211;53.912;9.138;2022-10-18T12:22:22;14.95;;;3.03;;
37063;SDS011;23211;53.912;9.138;2022-10-18T12:25:13;16.52;;;2.42;;
37063;SDS011;23211;53.912;9.138;2022-10-18T12:31:14;14.98;;;2.92;;
37063;SDS011;23211;53.912;9.138;2022-10-18T12:40:23;18.02;;;4.05;;
37063;SDS011;23211;53.912;9.138;2022-10-18T12:43:23;11.13;;;2.22;;
37063;SDS011;23211;53.912;9.138;2022-10-18T12:46:11;10.05;;;2.35;;
37063;SDS011;23211;53.912;9.138;2022-10-18T12:49:03;17.88;;;3.40;;
37063;SDS011;23211;53.912;9.138;2022-10-18T12:51:57;9.90;;;1.90;;
37063;SDS011;23211;53.912;9.138;2022-10-18T13:06:10;11.57;;;2.45;;
37063;SDS011;23211;53.912;9.138;2022-10-18T13:09:09;13.68;;;1.98;;
37063;SDS011;23211;53.912;9.138;2022-10-18T13:12:48;11.32;;;2.30;;
37063;SDS011;23211;53.912;9.138;2022-10-18T13:18:21;14.55;;;2.83;;
37063;SDS011;23211;53.912;9.138;2022-10-18T13:21:19;12.93;;;2.30;;
37063;SDS011;23211;53.912;9.138;2022-10-18T13:30:18;9.75;;;2.40;;
37063;SDS011;23211;53.912;9.138;2022-10-18T13:36:21;11.35;;;2.28;;
37063;SDS011;23211;53.912;9.138;2022-10-18T13:39:17;9.60;;;2.08;;
37063;SDS011;23211;53.912;9.138;2022-10-18T13:54:32;14.13;;;2.65;;
37063;SDS011;23211;53.912;9.138;2022-10-18T14:03:40;11.05;;;2.00;;
37063;SDS011;23211;53.912;9.138;2022-10-18T14:06:34;10.75;;;2.20;;
37063;SDS011;23211;53.912;9.138;2022-10-18T14:09:25;9.07;;;2.28;;
37063;SDS011;23211;53.912;9.138;2022-10-18T14:12:28;11.13;;;2.28;;
37063;SDS011;23211;53.912;9.138;2022-10-18T14:15:22;11.98;;;2.05;;
37063;SDS011;23211;53.912;9.138;2022-10-18T14:18:26;15.50;;;2.63;;
37063;SDS011;23211;53.912;9.138;2022-10-18T14:21:21;11.60;;;2.35;;
37063;SDS011;23211;53.912;9.138;2022-10-18T14:24:14;16.13;;;2.03;;
37063;SDS011;23211;53.912;9.138;2022-10-18T14:30:17;18.40;;;2.45;;
37063;SDS011;23211;53.912;9.138;2022-10-18T14:33:04;16.90;;;2.67;;
37063;SDS011;23211;53.912;9.138;2022-10-18T14:36:00;10.80;;;2.50;;
37063;SDS011;23211;53.912;9.138;2022-10-18T14:38:56;9.68;;;1.77;;
37063;SDS011;23211;53.912;9.138;2022-10-18T14:41:51;11.57;;;2.17;;
37063;SDS011;23211;53.912;9.138;2022-10-18T14:44:39;7.25;;;2.08;;
37063;SDS011;23211;53.912;9.138;2022-10-18T14:47:25;11.32;;;1.70;;
37063;SDS011;23211;53.912;9.138;2022-10-18T14:50:22;10.60;;;2.15;;
37063;SDS011;23211;53.912;9.138;2022-10-18T14:53:13;7.88;;;1.90;;
37063;SDS011;23211;53.912;9.138;2022-10-18T14:56:03;9.20;;;1.98;;
37063;SDS011;23211;53.912;9.138;2022-10-18T14:58:50;10.00;;;2.08;;
37063;SDS011;23211;53.912;9.138;2022-10-18T15:01:36;7.53;;;1.60;;
37063;SDS011;23211;53.912;9.138;2022-10-18T15:04:24;9.15;;;1.65;;
37063;SDS011;23211;53.912;9.138;2022-10-18T15:07:17;17.88;;;2.70;;
37063;SDS011;23211;53.912;9.138;2022-10-18T15:10:03;13.60;;;2.20;;
37063;SDS011;23211;53.912;9.138;2022-10-18T15:12:49;8.40;;;1.50;;
37063;SDS011;23211;53.912;9.138;2022-10-18T15:15:36;12.93;;;2.20;;
37063;SDS011;23211;53.912;9.138;2022-10-18T15:18:24;10.52;;;2.25;;
37063;SDS011;23211;53.912;9.138;2022-10-18T15:21:21;14.55;;;2.08;;
37063;SDS011;23211;53.912;9.138;2022-10-18T15:24:18;9.10;;;2.13;;
37063;SDS011;23211;53.912;9.138;2022-10-18T15:27:24;14.50;;;2.15;;
37063;SDS011;23211;53.912;9.138;2022-10-18T15:30:18;14.38;;;2.90;;
37063;SDS011;23211;53.912;9.138;2022-10-18T15:33:19;13.45;;;2.95;;
37063;SDS011;23211;53.912;9.138;2022-10-18T15:36:10;15.63;;;2.42;;
37063;SDS011;23211;53.912;9.138;2022-10-18T15:39:18;15.32;;;1.95;;
37063;SDS011;23211;53.912;9.138;2022-10-18T15:42:04;11.13;;;1.83;;
37063;SDS011;23211;53.912;9.138;2022-10-18T15:44:50;11.52;;;2.22;;
37063;SDS011;23211;53.912;9.138;2022-10-18T15:47:36;8.65;;;2.28;;
37063;SDS011;23211;53.912;9.138;2022-10-18T15:50:41;10.57;;;2.20;;
37063;SDS011;23211;53.912;9.138;2022-10-18T15:53:31;12.18;;;2.15;;
37063;SDS011;23211;53.912;9.138;2022-10-18T15:56:33;13.02;;;2.58;;
37063;SDS011;23211;53.912;9.138;2022-10-18T15:59:22;12.40;;;2.28;;
37063;SDS011;23211;53.912;9.138;2022-10-18T16:02:10;13.32;;;2.72;;
37063;SDS011;23211;53.912;9.138;2022-10-18T16:04:58;12.60;;;2.33;;
37063;SDS011;23211;53.912;9.138;2022-10-18T16:07:52;13.90;;;3.00;;
37063;SDS011;23211;53.912;9.138;2022-10-18T16:10:37;6.82;;;1.70;;
37063;SDS011;23211;53.912;9.138;2022-10-18T16:13:23;10.25;;;1.63;;
37063;SDS011;23211;53.912;9.138;2022-10-18T16:16:21;7.10;;;1.70;;
37063;SDS011;23211;53.912;9.138;2022-10-18T16:19:12;6.45;;;1.55;;
37063;SDS011;23211;53.912;9.138;2022-10-18T16:22:11;12.68;;;1.92;;
37063;SDS011;23211;53.912;9.138;2022-10-18T16:24:57;4.78;;;1.42;;
37063;SDS011;23211;53.912;9.138;2022-10-18T16:27:43;7.45;;;1.35;;
37063;SDS011;23211;53.912;9.138;2022-10-18T16:30:29;6.10;;;1.60;;
37063;SDS011;23211;53.912;9.138;2022-10-18T16:33:18;8.45;;;2.20;;
37063;SDS011;23211;53.912;9.138;2022-10-18T16:36:04;6.30;;;1.20;;
37063;SDS011;23211;53.912;9.138;2022-10-18T16:38:50;6.13;;;1.60;;
37063;SDS011;23211;53.912;9.138;2022-10-18T16:41:36;6.97;;;1.42;;
37063;SDS011;23211;53.912;9.138;2022-10-18T16:44:22;8.23;;;1.50;;
37063;SDS011;23211;53.912;9.138;2022-10-18T16:47:08;8.90;;;1.65;;
37063;SDS011;23211;53.912;9.138;2022-10-18T16:49:55;8.07;;;1.38;;
37063;SDS011;23211;53.912;9.138;2022-10-18T16:52:41;9.05;;;1.45;;
37063;SDS011;23211;53.912;9.138;2022-10-18T16:55:27;4.40;;;1.23;;
37063;SDS011;23211;53.912;9.138;2022-10-18T16:58:14;6.28;;;1.65;;
37063;SDS011;23211;53.912;9.138;2022-10-18T17:01:02;5.25;;;1.40;;
37063;SDS011;23211;53.912;9.138;2022-10-18T17:03:48;13.30;;;1.35;;
37063;SDS011;23211;53.912;9.138;2022-10-18T17:06:36;14.98;;;3.30;;
37063;SDS011;23211;53.912;9.138;2022-10-18T17:09:22;8.48;;;2.60;;
37063;SDS011;23211;53.912;9.138;2022-10-18T17:12:08;15.30;;;2.72;;
37063;SDS011;23211;53.912;9.138;2022-10-18T17:14:53;8.95;;;1.42;;
37063;SDS011;23211;53.912;9.138;2022-10-18T17:17:39;10.27;;;1.83;;
37063;SDS011;23211;53.912;9.138;2022-10-18T17:20:25;8.90;;;1.60;;
37063;SDS011;23211;53.912;9.138;2022-10-18T17:23:12;8.18;;;1.52;;
37063;SDS011;23211;53.912;9.138;2022-10-18T17:25:58;9.50;;;2.13;;
37063;SDS011;23211;53.912;9.138;2022-10-18T17:28:44;6.95;;;1.33;;
37063;SDS011;23211;53.912;9.138;2022-10-18T17:31:30;8.15;;;2.38;;
37063;SDS011;23211;53.912;9.138;2022-10-18T17:34:17;7.00;;;1.40;;
37063;SDS011;23211;53.912;9.138;2022-10-18T17:37:03;8.80;;;1.55;;
37063;SDS011;23211;53.912;9.138;2022-10-18T17:39:49;10.38;;;2.03;;
37063;SDS011;23211;53.912;9.138;2022-10-18T17:42:35;7.38;;;1.73;;
37063;SDS011;23211;53.912;9.138;2022-10-18T17:45:21;11.73;;;1.98;;
37063;SDS011;23211;53.912;9.138;2022-10-18T17:48:07;10.48;;;2.20;;
37063;SDS011;23211;53.912;9.138;2022-10-18T17:50:53;6.93;;;1.45;;
37063;SDS011;23211;53.912;9.138;2022-10-18T17:53:39;10.45;;;1.80;;
37063;SDS011;23211;53.912;9.138;2022-10-18T17:56:25;13.07;;;2.30;;
37063;SDS011;23211;53.912;9.138;2022-10-18T17:59:15;10.95;;;1.92;;
37063;SDS011;23211;53.912;9.138;2022-10-18T18:02:01;10.45;;;1.63;;
37063;SDS011;23211;53.912;9.138;2022-10-18T18:04:47;11.65;;;2.80;;
37063;SDS011;23211;53.912;9.138;2022-10-18T18:07:32;9.30;;;2.22;;
37063;SDS011;23211;53.912;9.138;2022-10-18T18:10:18;13.32;;;2.22;;
37063;SDS011;23211;53.912;9.138;2022-10-18T18:13:04;11.52;;;1.92;;
37063;SDS011;23211;53.912;9.138;2022-10-18T18:15:50;10.63;;;1.98;;
37063;SDS011;23211;53.912;9.138;2022-10-18T18:18:36;11.77;;;2.25;;
37063;SDS011;23211;53.912;9.138;2022-10-18T18:21:22;8.20;;;2.08;;
37063;SDS011;23211;53.912;9.138;2022-10-18T18:24:08;15.98;;;2.70;;
37063;SDS011;23211;53.912;9.138;2022-10-18T18:26:55;16.42;;;3.03;;
37063;SDS011;23211;53.912;9.138;2022-10-18T18:29:42;9.07;;;2.33;;
37063;SDS011;23211;53.912;9.138;2022-10-18T18:32:27;17.52;;;2.33;;
37063;SDS011;23211;53.912;9.138;2022-10-18T18:35:13;11.38;;;1.98;;
37063;SDS011;23211;53.912;9.138;2022-10-18T18:37:59;12.63;;;2.40;;
37063;SDS011;23211;53.912;9.138;2022-10-18T18:40:45;12.20;;;1.77;;
37063;SDS011;23211;53.912;9.138;2022-10-18T18:43:30;13.60;;;2.20;;
37063;SDS011;23211;53.912;9.138;2022-10-18T18:46:16;10.95;;;2.10;;
37063;SDS011;23211;53.912;9.138;2022-10-18T18:49:02;11.10;;;2.70;;
37063;SDS011;23211;53.912;9.138;2022-10-18T18:51:49;10.43;;;2.70;;
37063;SDS011;23211;53.912;9.138;2022-10-18T18:54:35;11.77;;;2.05;;